createdAt,value
2019-04-16T00:00:32.018Z,1014.46
2019-04-16T00:01:32.446Z,1014.49
2019-04-16T00:02:32.989Z,1014.50
2019-04-16T00:03:33.408Z,1014.44
2019-04-16T00:04:33.990Z,1014.41
2019-04-16T00:05:34.412Z,1014.45
2019-04-16T00:06:35.911Z,1014.47
2019-04-16T00:07:36.355Z,1014.45
2019-04-16T00:08:37.867Z,1014.40
2019-04-16T00:09:38.298Z,1014.36
2019-04-16T00:10:39.826Z,1014.42
2019-04-16T00:11:40.259Z,1014.34
2019-04-16T00:12:40.706Z,1014.38
2019-04-16T00:13:41.136Z,1014.33
2019-04-16T00:14:49.274Z,1014.33
2019-04-16T00:15:49.708Z,1014.35
2019-04-16T00:16:50.308Z,1014.31
2019-04-16T00:17:50.756Z,1014.30
2019-04-16T00:18:58.005Z,1014.31
2019-04-16T00:19:57.652Z,1014.30
2019-04-16T00:20:59.143Z,1014.28
2019-04-16T00:21:59.590Z,1014.23
2019-04-16T00:23:00.119Z,1014.21
2019-04-16T00:24:00.555Z,1014.25
2019-04-16T00:25:03.065Z,1014.20
2019-04-16T00:26:03.499Z,1014.16
2019-04-16T00:27:03.997Z,1014.16
2019-04-16T00:28:04.443Z,1014.23
2019-04-16T00:29:04.932Z,1014.18
2019-04-16T00:30:05.783Z,1014.17
2019-04-16T00:31:08.334Z,1014.15
2019-04-16T00:32:09.677Z,1014.18
2019-04-16T00:33:12.372Z,1014.15
2019-04-16T00:34:17.782Z,1014.16
2019-04-16T00:35:19.315Z,1014.14
2019-04-16T00:36:19.735Z,1014.18
2019-04-16T00:37:21.609Z,1014.09
2019-04-16T00:38:22.641Z,1014.11
2019-04-16T00:39:25.896Z,1014.17
2019-04-16T00:40:27.190Z,1014.14
2019-04-16T00:41:43.827Z,1014.08
2019-04-16T00:42:44.256Z,1014.05
2019-04-16T00:43:46.848Z,1014.10
2019-04-16T00:44:47.267Z,1014.06
2019-04-16T00:45:55.735Z,1014.11
2019-04-16T00:46:56.165Z,1014.11
2019-04-16T00:47:56.717Z,1014.11
2019-04-16T00:48:57.134Z,1014.06
2019-04-16T00:49:59.499Z,1014.04
2019-04-16T00:51:00.104Z,1014.07
2019-04-16T00:52:05.799Z,1014.06
2019-04-16T00:53:08.222Z,1014.07
2019-04-16T00:54:11.198Z,1013.95
2019-04-16T00:55:14.544Z,1014.07
2019-04-16T00:56:22.328Z,1014.06
2019-04-16T00:57:22.750Z,1014.07
2019-04-16T00:58:29.345Z,1013.98
2019-04-16T00:59:29.821Z,1014.05
2019-04-16T01:00:30.756Z,1014.00
2019-04-16T01:01:31.736Z,1013.98
2019-04-16T01:02:39.271Z,1013.97
2019-04-16T01:03:39.784Z,1014.05
2019-04-16T01:04:42.348Z,1013.98
2019-04-16T01:05:42.772Z,1014.00
2019-04-16T01:06:44.308Z,1013.95
2019-04-16T01:07:44.733Z,1013.98
2019-04-16T01:08:54.373Z,1014.01
2019-04-16T01:09:51.698Z,1014.00
2019-04-16T01:10:53.252Z,1013.98
2019-04-16T01:11:53.688Z,1014.03
2019-04-16T01:13:00.845Z,1014.04
2019-04-16T01:14:01.289Z,1013.98
2019-04-16T01:15:01.892Z,1013.98
2019-04-16T01:16:03.737Z,1013.96
2019-04-16T01:17:05.804Z,1013.91
2019-04-16T01:18:08.075Z,1013.97
2019-04-16T01:19:10.811Z,1013.91
2019-04-16T01:20:12.937Z,1013.99
2019-04-16T01:21:14.804Z,1013.94
2019-04-16T01:22:16.032Z,1013.94
2019-04-16T01:23:19.333Z,1013.96
2019-04-16T01:24:20.337Z,1013.92
2019-04-16T01:25:23.224Z,1013.92
2019-04-16T01:26:26.981Z,1013.88
2019-04-16T01:27:28.786Z,1013.84
2019-04-16T01:28:32.104Z,1013.90
2019-04-16T01:29:33.836Z,1013.83
2019-04-16T01:30:36.562Z,1013.89
2019-04-16T01:31:45.263Z,1013.89
2019-04-16T01:32:45.697Z,1013.82
2019-04-16T01:33:50.228Z,1013.87
2019-04-16T01:34:50.645Z,1013.83
2019-04-16T01:35:52.581Z,1013.82
2019-04-16T01:36:54.406Z,1013.80
2019-04-16T01:37:56.850Z,1013.78
2019-04-16T01:39:15.300Z,1013.78
2019-04-16T01:40:04.294Z,1013.77
2019-04-16T01:41:04.741Z,1013.73
2019-04-16T01:42:05.320Z,1013.77
2019-04-16T01:43:05.743Z,1013.73
2019-04-16T01:44:07.293Z,1013.74
2019-04-16T01:45:07.726Z,1013.74
2019-04-16T01:46:16.805Z,1013.75
2019-04-16T01:47:17.240Z,1013.72
2019-04-16T01:48:24.811Z,1013.69
2019-04-16T01:49:25.254Z,1013.65
2019-04-16T01:50:26.870Z,1013.73
2019-04-16T01:51:27.299Z,1013.66
2019-04-16T01:52:27.803Z,1013.68
2019-04-16T01:53:28.237Z,1013.72
2019-04-16T01:54:28.769Z,1013.70
2019-04-16T01:55:29.195Z,1013.77
2019-04-16T01:56:29.776Z,1013.70
2019-04-16T01:57:30.705Z,1013.74
2019-04-16T01:58:34.007Z,1013.71
2019-04-16T01:59:35.893Z,1013.66
2019-04-16T02:00:39.222Z,1013.67
2019-04-16T02:01:43.367Z,1013.70
2019-04-16T02:02:51.321Z,1013.71
2019-04-16T02:03:51.768Z,1013.70
2019-04-16T02:04:59.324Z,1013.72
2019-04-16T02:05:59.749Z,1013.72
2019-04-16T02:07:02.301Z,1013.71
2019-04-16T02:08:02.723Z,1013.71
2019-04-16T02:09:03.586Z,1013.72
2019-04-16T02:10:07.269Z,1013.68
2019-04-16T02:11:10.611Z,1013.60
2019-04-16T02:12:13.255Z,1013.59
2019-04-16T02:13:15.861Z,1013.67
2019-04-16T02:14:17.961Z,1013.59
2019-04-16T02:15:21.847Z,1013.59
2019-04-16T02:16:25.206Z,1013.57
2019-04-16T02:17:27.662Z,1013.57
2019-04-16T02:18:29.686Z,1013.55
2019-04-16T02:19:32.904Z,1013.59
2019-04-16T02:20:38.474Z,1013.59
2019-04-16T02:21:42.092Z,1013.51
2019-04-16T02:22:45.153Z,1013.48
2019-04-16T02:23:48.800Z,1013.55
2019-04-16T02:24:49.296Z,1013.53
2019-04-16T02:25:51.303Z,1013.48
2019-04-16T02:26:54.834Z,1013.52
2019-04-16T02:27:57.011Z,1013.52
2019-04-16T02:28:58.921Z,1013.48
2019-04-16T02:30:02.695Z,1013.45
2019-04-16T02:31:12.883Z,1013.51
2019-04-16T02:32:11.477Z,1013.55
2019-04-16T02:33:12.112Z,1013.52
2019-04-16T02:34:12.977Z,1013.53
2019-04-16T02:35:13.575Z,1013.53
2019-04-16T02:36:14.016Z,1013.49
2019-04-16T02:37:14.608Z,1013.55
2019-04-16T02:38:15.043Z,1013.51
2019-04-16T02:39:15.652Z,1013.52
2019-04-16T02:40:18.499Z,1013.52
2019-04-16T02:41:23.344Z,1013.54
2019-04-16T02:42:30.615Z,1013.55
2019-04-16T02:43:39.759Z,1013.60
2019-04-16T02:44:39.704Z,1013.56
2019-04-16T02:45:41.283Z,1013.53
2019-04-16T02:46:41.701Z,1013.51
2019-04-16T02:47:42.563Z,1013.52
2019-04-16T02:48:49.953Z,1013.54
2019-04-16T02:49:49.437Z,1013.43
2019-04-16T02:50:50.025Z,1013.42
2019-04-16T02:51:50.456Z,1013.48
2019-04-16T02:52:52.460Z,1013.49
2019-04-16T02:53:54.569Z,1013.41
2019-04-16T02:55:07.666Z,1013.50
2019-04-16T02:56:07.033Z,1013.42
2019-04-16T02:57:08.601Z,1013.42
2019-04-16T02:58:09.030Z,1013.45
2019-04-16T02:59:13.047Z,1013.40
2019-04-16T03:00:17.610Z,1013.42
2019-04-16T03:01:20.878Z,1013.40
2019-04-16T03:02:23.108Z,1013.38
2019-04-16T03:03:24.862Z,1013.35
2019-04-16T03:04:26.999Z,1013.37
2019-04-16T03:05:29.105Z,1013.33
2019-04-16T03:06:31.893Z,1013.28
2019-04-16T03:07:33.461Z,1013.28
2019-04-16T03:08:36.033Z,1013.34
2019-04-16T03:09:40.049Z,1013.31
2019-04-16T03:10:41.822Z,1013.33
2019-04-16T03:11:45.581Z,1013.27
2019-04-16T03:12:51.814Z,1013.30
2019-04-16T03:13:58.200Z,1013.30
2019-04-16T03:15:01.301Z,1013.26
2019-04-16T03:16:05.703Z,1013.27
2019-04-16T03:17:10.046Z,1013.25
2019-04-16T03:18:14.747Z,1013.21
2019-04-16T03:19:20.081Z,1013.26
2019-04-16T03:20:23.840Z,1013.21
2019-04-16T03:21:27.426Z,1013.21
2019-04-16T03:22:30.592Z,1013.21
2019-04-16T03:23:36.508Z,1013.23
2019-04-16T03:24:40.229Z,1013.20
2019-04-16T03:25:44.205Z,1013.24
2019-04-16T03:26:47.651Z,1013.18
2019-04-16T03:27:51.467Z,1013.23
2019-04-16T03:28:55.689Z,1013.16
2019-04-16T03:30:03.043Z,1013.19
2019-04-16T03:31:08.693Z,1013.13
2019-04-16T03:32:13.554Z,1013.15
2019-04-16T03:33:16.026Z,1013.14
2019-04-16T03:34:19.276Z,1013.13
2019-04-16T03:35:25.779Z,1013.13
2019-04-16T03:36:29.540Z,1013.11
2019-04-16T03:37:32.962Z,1013.19
2019-04-16T03:38:36.854Z,1013.15
2019-04-16T03:39:43.824Z,1013.16
2019-04-16T03:40:45.722Z,1013.14
2019-04-16T03:41:46.152Z,1013.07
2019-04-16T03:42:47.618Z,1013.06
2019-04-16T03:43:48.050Z,1013.11
2019-04-16T03:44:48.475Z,1013.10
2019-04-16T03:45:48.929Z,1013.06
2019-04-16T03:46:49.482Z,1013.07
2019-04-16T03:47:51.363Z,1013.09
2019-04-16T03:48:56.164Z,1013.10
2019-04-16T03:49:59.466Z,1013.02
2019-04-16T03:51:03.743Z,1013.05
2019-04-16T03:52:08.269Z,1012.96
2019-04-16T03:53:09.838Z,1013.04
2019-04-16T03:54:10.326Z,1013.00
2019-04-16T03:55:10.752Z,1012.94
2019-04-16T03:56:11.299Z,1012.95
2019-04-16T03:57:11.733Z,1012.97
2019-04-16T03:58:12.195Z,1012.90
2019-04-16T03:59:12.614Z,1012.89
2019-04-16T04:00:43.766Z,1012.85
2019-04-16T04:01:46.183Z,1012.89
2019-04-16T04:02:48.371Z,1012.84
2019-04-16T04:03:48.840Z,1012.82
2019-04-16T04:04:49.287Z,1012.80
2019-04-16T04:05:49.730Z,1012.92
2019-04-16T04:06:50.160Z,1012.89
2019-04-16T04:07:50.597Z,1012.89
2019-04-16T04:08:53.216Z,1012.94
2019-04-16T04:09:54.536Z,1012.93
2019-04-16T04:10:55.817Z,1012.87
2019-04-16T04:11:56.238Z,1012.88
2019-04-16T04:12:56.688Z,1012.87
2019-04-16T04:13:59.288Z,1012.91
2019-04-16T04:14:59.721Z,1012.89
2019-04-16T04:16:01.695Z,1012.90
2019-04-16T04:17:06.671Z,1012.97
2019-04-16T04:18:11.265Z,1012.90
2019-04-16T04:19:15.114Z,1012.93
2019-04-16T04:20:18.142Z,1012.91
2019-04-16T04:21:22.057Z,1012.90
2019-04-16T04:22:25.843Z,1012.91
2019-04-16T04:23:28.646Z,1012.96
2019-04-16T04:24:31.413Z,1012.92
2019-04-16T04:25:35.956Z,1012.92
2019-04-16T04:26:40.928Z,1012.92
2019-04-16T04:27:43.614Z,1012.89
2019-04-16T04:28:48.578Z,1012.90
2019-04-16T04:29:53.710Z,1012.91
2019-04-16T04:30:57.725Z,1012.95
2019-04-16T04:32:03.346Z,1012.91
2019-04-16T04:33:07.964Z,1012.93
2019-04-16T04:34:15.113Z,1012.97
2019-04-16T04:35:21.035Z,1013.03
2019-04-16T04:36:26.424Z,1013.00
2019-04-16T04:37:31.363Z,1012.91
2019-04-16T04:38:33.566Z,1012.95
2019-04-16T04:39:37.757Z,1012.97
2019-04-16T04:40:44.717Z,1012.95
2019-04-16T04:41:44.666Z,1012.96
2019-04-16T04:42:45.092Z,1012.94
2019-04-16T04:43:45.556Z,1012.98
2019-04-16T04:44:47.090Z,1012.96
2019-04-16T04:45:47.857Z,1012.92
2019-04-16T04:46:48.324Z,1012.92
2019-04-16T04:47:51.717Z,1012.91
2019-04-16T04:48:55.354Z,1012.96
2019-04-16T04:49:59.532Z,1012.92
2019-04-16T04:51:07.233Z,1012.92
2019-04-16T04:52:13.566Z,1012.94
2019-04-16T04:53:18.349Z,1012.91
2019-04-16T04:54:22.653Z,1012.89
2019-04-16T04:55:26.837Z,1012.90
2019-04-16T04:56:28.059Z,1012.88
2019-04-16T04:57:31.186Z,1012.91
2019-04-16T04:58:34.191Z,1012.90
2019-04-16T04:59:37.396Z,1013.02
2019-04-16T05:00:40.522Z,1013.02
2019-04-16T05:01:42.564Z,1012.93
2019-04-16T05:02:43.665Z,1013.02
2019-04-16T05:03:47.483Z,1013.01
2019-04-16T05:04:49.653Z,1013.02
2019-04-16T05:05:53.302Z,1012.95
2019-04-16T05:06:57.239Z,1012.96
2019-04-16T05:08:00.034Z,1012.93
2019-04-16T05:09:01.452Z,1013.00
2019-04-16T05:10:04.647Z,1012.97
2019-04-16T05:11:07.726Z,1012.97
2019-04-16T05:12:12.757Z,1012.97
2019-04-16T05:13:13.314Z,1013.01
2019-04-16T05:14:13.749Z,1013.00
2019-04-16T05:15:14.266Z,1013.03
2019-04-16T05:16:14.693Z,1013.03
2019-04-16T05:17:17.290Z,1012.96
2019-04-16T05:18:17.864Z,1013.02
2019-04-16T05:19:18.404Z,1013.00
2019-04-16T05:20:18.820Z,1013.03
2019-04-16T05:21:19.634Z,1013.04
2019-04-16T05:22:21.578Z,1013.04
2019-04-16T05:23:25.691Z,1013.06
2019-04-16T05:24:29.328Z,1013.07
2019-04-16T05:25:34.098Z,1013.13
2019-04-16T05:26:36.454Z,1013.11
2019-04-16T05:27:41.323Z,1013.12
2019-04-16T05:28:45.346Z,1013.09
2019-04-16T05:29:52.748Z,1013.16
2019-04-16T05:30:53.258Z,1013.11
2019-04-16T05:31:57.392Z,1013.02
2019-04-16T05:32:58.664Z,1013.01
2019-04-16T05:34:37.530Z,1013.06
2019-04-16T05:35:41.447Z,1013.06
2019-04-16T05:36:46.496Z,1013.11
2019-04-16T05:37:48.526Z,1013.12
2019-04-16T05:38:55.493Z,1013.10
2019-04-16T05:39:58.960Z,1013.16
2019-04-16T05:41:12.593Z,1013.20
2019-04-16T05:42:07.423Z,1013.15
2019-04-16T05:43:07.988Z,1013.12
2019-04-16T05:44:08.481Z,1013.17
2019-04-16T05:45:10.055Z,1013.13
2019-04-16T05:46:10.479Z,1013.14
2019-04-16T05:47:11.147Z,1013.15
2019-04-16T05:48:11.752Z,1013.16
2019-04-16T05:49:12.186Z,1013.12
2019-04-16T05:50:12.610Z,1013.11
2019-04-16T05:51:13.040Z,1013.16
2019-04-16T05:52:14.584Z,1013.15
2019-04-16T05:53:15.014Z,1013.24
2019-04-16T05:54:15.774Z,1013.21
2019-04-16T05:55:18.057Z,1013.16
2019-04-16T05:56:24.034Z,1013.17
2019-04-16T05:57:26.134Z,1013.21
2019-04-16T05:58:30.787Z,1013.22
2019-04-16T05:59:33.912Z,1013.14
2019-04-16T06:00:35.058Z,1013.22
2019-04-16T06:01:35.488Z,1013.18
2019-04-16T06:02:36.971Z,1013.16
2019-04-16T06:03:37.428Z,1013.15
2019-04-16T06:04:37.954Z,1013.17
2019-04-16T06:05:38.379Z,1013.14
2019-04-16T06:06:38.889Z,1013.14
2019-04-16T06:07:39.347Z,1013.15
2019-04-16T06:08:41.582Z,1013.14
2019-04-16T06:09:44.451Z,1013.14
2019-04-16T06:10:49.684Z,1013.10
2019-04-16T06:11:53.062Z,1013.12
2019-04-16T06:12:53.608Z,1013.15
2019-04-16T06:13:54.039Z,1013.06
2019-04-16T06:14:54.457Z,1013.11
2019-04-16T06:15:54.931Z,1013.08
2019-04-16T06:16:56.818Z,1013.13
2019-04-16T06:17:58.148Z,1013.09
2019-04-16T06:18:58.574Z,1013.12
2019-04-16T06:19:59.000Z,1013.10
2019-04-16T06:20:59.518Z,1013.10
2019-04-16T06:21:59.947Z,1013.09
2019-04-16T06:23:00.861Z,1013.03
2019-04-16T06:24:03.528Z,1013.06
2019-04-16T06:25:09.389Z,1013.04
2019-04-16T06:26:14.750Z,1013.12
2019-04-16T06:27:16.335Z,1013.09
2019-04-16T06:28:16.871Z,1013.05
2019-04-16T06:29:17.537Z,1013.12
2019-04-16T06:30:17.998Z,1013.08
2019-04-16T06:31:18.543Z,1013.07
2019-04-16T06:32:19.022Z,1013.13
2019-04-16T06:33:19.476Z,1013.12
2019-04-16T06:34:19.904Z,1013.14
2019-04-16T06:35:20.410Z,1013.11
2019-04-16T06:36:20.843Z,1013.15
2019-04-16T06:37:26.549Z,1013.14
2019-04-16T06:38:27.804Z,1013.08
2019-04-16T06:39:30.042Z,1013.11
2019-04-16T06:40:32.688Z,1013.09
2019-04-16T06:41:41.434Z,1013.10
2019-04-16T06:42:39.770Z,1013.09
2019-04-16T06:43:40.327Z,1013.04
2019-04-16T06:44:40.761Z,1013.05
2019-04-16T06:45:41.269Z,1013.07
2019-04-16T06:46:41.710Z,1013.08
2019-04-16T06:47:44.287Z,1013.06
2019-04-16T06:48:46.003Z,1013.12
2019-04-16T06:49:48.219Z,1013.06
2019-04-16T06:50:51.343Z,1013.06
2019-04-16T06:51:51.853Z,1013.08
2019-04-16T06:52:52.308Z,1013.09
2019-04-16T06:53:56.845Z,1013.06
2019-04-16T06:55:00.514Z,1013.09
2019-04-16T06:56:05.586Z,1013.07
2019-04-16T06:57:09.702Z,1013.08
2019-04-16T06:58:16.571Z,1013.07
2019-04-16T06:59:18.223Z,1013.13
2019-04-16T07:00:18.736Z,1013.09
2019-04-16T07:01:22.046Z,1013.02
2019-04-16T07:02:24.663Z,1012.99
2019-04-16T07:03:27.340Z,1013.09
2019-04-16T07:04:30.484Z,1013.06
2019-04-16T07:05:32.896Z,1013.07
2019-04-16T07:06:36.350Z,1013.04
2019-04-16T07:07:39.888Z,1013.08
2019-04-16T07:08:41.960Z,1013.11
2019-04-16T07:09:45.670Z,1013.01
2019-04-16T07:10:46.463Z,1013.03
2019-04-16T07:11:54.267Z,1012.99
2019-04-16T07:12:53.356Z,1013.03
2019-04-16T07:13:53.922Z,1012.93
2019-04-16T07:14:54.349Z,1013.01
2019-04-16T07:15:56.864Z,1012.95
2019-04-16T07:17:00.159Z,1013.01
2019-04-16T07:18:02.488Z,1012.97
2019-04-16T07:19:10.322Z,1012.96
2019-04-16T07:20:13.471Z,1012.93
2019-04-16T07:21:17.561Z,1012.95
2019-04-16T07:22:21.322Z,1013.02
2019-04-16T07:23:24.829Z,1012.94
2019-04-16T07:24:30.164Z,1012.98
2019-04-16T07:26:56.611Z,1013.01
2019-04-16T07:27:58.623Z,1012.97
2019-04-16T07:28:59.954Z,1012.97
2019-04-16T07:30:04.865Z,1012.92
2019-04-16T07:31:07.494Z,1012.91
2019-04-16T07:32:08.020Z,1012.89
2019-04-16T07:33:08.605Z,1012.89
2019-04-16T07:34:09.042Z,1012.96
2019-04-16T07:35:09.471Z,1012.94
2019-04-16T07:36:09.937Z,1012.93
2019-04-16T07:37:10.360Z,1012.90
2019-04-16T07:38:11.706Z,1012.92
2019-04-16T07:39:14.823Z,1012.89
2019-04-16T07:40:18.819Z,1012.85
2019-04-16T07:41:19.246Z,1012.91
2019-04-16T07:42:22.222Z,1012.82
2019-04-16T07:43:22.892Z,1012.95
2019-04-16T07:44:23.318Z,1012.92
2019-04-16T07:45:23.738Z,1012.78
2019-04-16T07:46:24.159Z,1012.83
2019-04-16T07:47:24.585Z,1012.79
2019-04-16T07:48:25.029Z,1012.80
2019-04-16T07:49:26.405Z,1012.82
2019-04-16T07:50:29.569Z,1012.82
2019-04-16T07:51:35.839Z,1012.77
2019-04-16T07:52:39.046Z,1012.81
2019-04-16T07:53:47.202Z,1012.82
2019-04-16T07:54:48.742Z,1012.84
2019-04-16T07:55:49.306Z,1012.89
2019-04-16T07:56:49.764Z,1012.91
2019-04-16T07:57:50.225Z,1012.85
2019-04-16T07:58:50.657Z,1012.91
2019-04-16T08:00:28.147Z,1012.96
2019-04-16T08:01:28.649Z,1012.88
2019-04-16T08:06:16.244Z,1012.73
2019-04-16T08:07:20.167Z,1012.76
2019-04-16T08:08:24.366Z,1012.70
2019-04-16T08:09:28.966Z,1012.71
2019-04-16T08:13:48.341Z,1012.70
2019-04-16T08:14:48.884Z,1012.68
2019-04-16T08:15:49.343Z,1012.74
2019-04-16T08:16:49.838Z,1012.72
2019-04-16T08:17:50.770Z,1012.78
2019-04-16T08:18:51.342Z,1012.77
2019-04-16T08:19:55.078Z,1012.73
2019-04-16T08:21:02.021Z,1012.74
2019-04-16T08:22:02.473Z,1012.76
2019-04-16T08:23:02.994Z,1012.68
2019-04-16T08:24:03.456Z,1012.69
2019-04-16T08:25:04.261Z,1012.62
2019-04-16T08:26:11.161Z,1012.66
2019-04-16T08:27:16.733Z,1012.63
2019-04-16T08:28:17.527Z,1012.64
2019-04-16T08:29:17.982Z,1012.59
2019-04-16T08:30:18.472Z,1012.55
2019-04-16T08:31:18.900Z,1012.50
2019-04-16T08:32:19.401Z,1012.53
2019-04-16T08:33:19.844Z,1012.54
2019-04-16T08:34:20.363Z,1012.38
2019-04-16T08:35:20.793Z,1012.44
2019-04-16T08:36:21.258Z,1012.46
2019-04-16T08:37:21.680Z,1012.39
2019-04-16T08:38:22.100Z,1012.38
2019-04-16T08:39:22.546Z,1012.39
2019-04-16T08:40:23.033Z,1012.37
2019-04-16T08:41:23.484Z,1012.35
2019-04-16T08:42:25.720Z,1012.33
2019-04-16T08:43:29.657Z,1012.39
2019-04-16T08:44:35.300Z,1012.33
2019-04-16T08:45:39.114Z,1012.29
2019-04-16T08:46:42.293Z,1012.39
2019-04-16T08:47:44.893Z,1012.29
2019-04-16T08:48:54.446Z,1012.30
2019-04-16T08:49:55.090Z,1012.27
2019-04-16T08:52:11.146Z,1012.35
2019-04-16T08:53:20.829Z,1012.31
2019-04-16T08:54:21.269Z,1012.35
2019-04-16T08:55:50.329Z,1012.29
2019-04-16T08:56:50.759Z,1012.30
2019-04-16T08:57:52.312Z,1012.30
2019-04-16T08:58:56.062Z,1012.36
2019-04-16T09:00:04.595Z,1012.27
2019-04-16T09:01:05.037Z,1012.30
2019-04-16T09:02:07.573Z,1012.34
2019-04-16T09:03:07.993Z,1012.27
2019-04-16T09:04:16.290Z,1012.26
2019-04-16T09:05:16.867Z,1012.23
2019-04-16T09:06:24.293Z,1012.24
2019-04-16T09:07:24.722Z,1012.22
2019-04-16T09:08:26.759Z,1012.28
2019-04-16T09:09:27.206Z,1012.22
2019-04-16T09:10:30.865Z,1012.23
2019-04-16T09:11:35.079Z,1012.22
2019-04-16T09:12:41.337Z,1012.26
2019-04-16T09:13:44.402Z,1012.26
2019-04-16T09:14:47.545Z,1012.22
2019-04-16T09:15:48.070Z,1012.23
2019-04-16T09:16:48.565Z,1012.22
2019-04-16T09:17:48.995Z,1012.19
2019-04-16T09:18:49.489Z,1012.20
2019-04-16T09:19:49.922Z,1012.18
2019-04-16T09:20:50.428Z,1012.25
2019-04-16T09:21:50.857Z,1012.18
2019-04-16T09:22:53.670Z,1012.26
2019-04-16T09:23:56.702Z,1012.21
2019-04-16T09:25:13.596Z,1012.26
2019-04-16T09:26:18.592Z,1012.17
2019-04-16T09:27:32.190Z,1012.19
2019-04-16T09:28:35.253Z,1012.23
2019-04-16T09:29:39.117Z,1012.26
2019-04-16T09:30:40.551Z,1012.21
2019-04-16T09:31:41.028Z,1012.23
2019-04-16T09:32:41.453Z,1012.22
2019-04-16T09:33:43.917Z,1012.19
2019-04-16T09:34:44.362Z,1012.16
2019-04-16T09:42:32.358Z,1012.22
2019-04-16T09:43:33.839Z,1012.25
2019-04-16T09:44:35.541Z,1012.19
2019-04-16T09:46:12.949Z,1012.17
2019-04-16T09:47:16.133Z,1012.22
2019-04-16T09:48:17.807Z,1012.21
2019-04-16T09:49:18.253Z,1012.19
2019-04-16T09:50:23.882Z,1012.25
2019-04-16T09:51:26.151Z,1012.19
2019-04-16T09:52:35.758Z,1012.12
2019-04-16T09:53:40.041Z,1012.18
2019-04-16T09:54:44.232Z,1012.15
2019-04-16T09:55:47.640Z,1012.13
2019-04-16T09:56:51.441Z,1012.07
2019-04-16T09:57:51.952Z,1012.07
2019-04-16T09:58:52.482Z,1012.09
2019-04-16T09:59:52.899Z,1012.06
2019-04-16T10:00:56.733Z,1012.07
2019-04-16T10:01:57.166Z,1011.98
2019-04-16T10:02:57.687Z,1012.00
2019-04-16T10:03:58.110Z,1012.03
2019-04-16T10:04:58.575Z,1011.95
2019-04-16T10:05:58.996Z,1011.95
2019-04-16T10:06:59.466Z,1011.95
2019-04-16T10:07:59.900Z,1011.94
2019-04-16T10:09:00.391Z,1011.92
2019-04-16T10:10:00.859Z,1011.94
2019-04-16T10:11:05.575Z,1011.98
2019-04-16T10:12:07.980Z,1011.93
2019-04-16T10:13:09.120Z,1011.95
2019-04-16T10:14:09.552Z,1011.87
2019-04-16T10:15:10.095Z,1011.97
2019-04-16T10:16:13.569Z,1011.89
2019-04-16T10:17:14.902Z,1011.89
2019-04-16T10:18:15.319Z,1011.89
2019-04-16T10:19:15.844Z,1011.84
2019-04-16T10:20:16.279Z,1011.88
2019-04-16T10:21:20.108Z,1011.74
2019-04-16T10:22:20.742Z,1011.83
2019-04-16T10:23:21.412Z,1011.80
2019-04-16T10:24:21.852Z,1011.84
2019-04-16T10:25:23.170Z,1011.75
2019-04-16T10:26:23.629Z,1011.85
2019-04-16T10:27:24.084Z,1011.78
2019-04-16T10:28:24.583Z,1011.80
2019-04-16T10:29:25.007Z,1011.89
2019-04-16T10:30:25.556Z,1011.79
2019-04-16T10:31:33.211Z,1011.80
2019-04-16T10:32:33.713Z,1011.79
2019-04-16T10:33:34.294Z,1011.72
2019-04-16T10:34:36.442Z,1011.74
2019-04-16T10:35:37.019Z,1011.77
2019-04-16T10:36:38.191Z,1011.69
2019-04-16T10:37:38.698Z,1011.71
2019-04-16T10:38:39.121Z,1011.73
2019-04-16T10:39:39.541Z,1011.72
2019-04-16T10:40:40.088Z,1011.72
2019-04-16T10:41:40.568Z,1011.66
2019-04-16T10:42:41.082Z,1011.67
2019-04-16T10:43:44.845Z,1011.68
2019-04-16T10:44:45.630Z,1011.65
2019-04-16T10:45:46.217Z,1011.63
2019-04-16T10:46:46.653Z,1011.61
2019-04-16T10:47:47.106Z,1011.62
2019-04-16T10:48:47.546Z,1011.60
2019-04-16T10:49:48.058Z,1011.59
2019-04-16T10:50:48.588Z,1011.62
2019-04-16T10:51:49.096Z,1011.67
2019-04-16T10:52:54.081Z,1011.61
2019-04-16T10:53:56.082Z,1011.59
2019-04-16T10:54:56.498Z,1011.62
2019-04-16T10:55:57.050Z,1011.62
2019-04-16T10:56:58.387Z,1011.47
2019-04-16T10:57:58.982Z,1011.58
2019-04-16T10:58:59.728Z,1011.58
2019-04-16T11:00:00.310Z,1011.53
2019-04-16T11:01:00.772Z,1011.51
2019-04-16T11:02:01.242Z,1011.47
2019-04-16T11:03:06.664Z,1011.54
2019-04-16T11:04:07.777Z,1011.43
2019-04-16T11:05:09.047Z,1011.51
2019-04-16T11:06:09.482Z,1011.52
2019-04-16T11:07:10.008Z,1011.50
2019-04-16T11:08:10.456Z,1011.42
2019-04-16T11:09:10.928Z,1011.47
2019-04-16T11:10:11.947Z,1011.48
2019-04-16T11:11:12.565Z,1011.41
2019-04-16T11:12:12.984Z,1011.43
2019-04-16T11:13:13.507Z,1011.40
2019-04-16T11:14:13.960Z,1011.40
2019-04-16T11:15:14.431Z,1011.39
2019-04-16T11:16:14.885Z,1011.33
2019-04-16T11:17:15.419Z,1011.46
2019-04-16T11:18:15.879Z,1011.44
2019-04-16T11:19:16.315Z,1011.41
2019-04-16T11:20:16.853Z,1011.43
2019-04-16T11:21:17.338Z,1011.43
2019-04-16T11:22:17.937Z,1011.32
2019-04-16T11:23:18.387Z,1011.37
2019-04-16T11:24:20.583Z,1011.36
2019-04-16T11:25:21.207Z,1011.30
2019-04-16T11:26:21.714Z,1011.35
2019-04-16T11:27:22.138Z,1011.39
2019-04-16T11:28:22.649Z,1011.40
2019-04-16T11:29:23.105Z,1011.31
2019-04-16T11:30:23.547Z,1011.24
2019-04-16T11:31:24.004Z,1011.25
2019-04-16T11:32:24.484Z,1011.28
2019-04-16T11:33:27.501Z,1011.30
2019-04-16T11:34:28.183Z,1011.27
2019-04-16T11:35:28.626Z,1011.29
2019-04-16T11:36:30.963Z,1011.27
2019-04-16T11:37:36.015Z,1011.27
2019-04-16T11:38:37.860Z,1011.21
2019-04-16T11:39:38.298Z,1011.26
2019-04-16T11:40:41.043Z,1011.23
2019-04-16T11:41:41.766Z,1011.11
2019-04-16T11:42:42.273Z,1011.18
2019-04-16T11:43:42.733Z,1011.18
2019-04-16T11:44:43.232Z,1011.15
2019-04-16T11:45:43.672Z,1011.08
2019-04-16T11:49:28.189Z,1011.15
2019-04-16T11:50:29.788Z,1011.12
2019-04-16T11:51:30.256Z,1011.20
2019-04-16T11:52:30.740Z,1011.22
2019-04-16T11:53:31.232Z,1011.16
2019-04-16T11:54:31.759Z,1011.17
2019-04-16T11:55:32.188Z,1011.26
2019-04-16T11:56:33.659Z,1011.21
2019-04-16T11:57:34.189Z,1011.17
2019-04-16T11:58:41.629Z,1011.21
2019-04-16T11:59:47.039Z,1011.22
2019-04-16T12:00:47.620Z,1011.25
2019-04-16T12:01:48.162Z,1011.24
2019-04-16T12:02:48.732Z,1011.29
2019-04-16T12:03:49.161Z,1011.32
2019-04-16T12:04:49.774Z,1011.35
2019-04-16T12:05:50.227Z,1011.33
2019-04-16T12:06:50.740Z,1011.38
2019-04-16T12:07:51.223Z,1011.38
2019-04-16T12:08:52.740Z,1011.43
2019-04-16T12:09:53.215Z,1011.40
2019-04-16T12:10:53.673Z,1011.34
2019-04-16T12:11:54.114Z,1011.44
2019-04-16T12:12:54.644Z,1011.45
2019-04-16T12:13:55.081Z,1011.45
2019-04-16T12:14:56.577Z,1011.43
2019-04-16T12:15:57.033Z,1011.38
2019-04-16T12:16:58.572Z,1011.42
2019-04-16T12:17:59.017Z,1011.41
2019-04-16T12:18:59.497Z,1011.52
2019-04-16T12:19:59.951Z,1011.39
2019-04-16T12:21:00.446Z,1011.39
2019-04-16T12:22:00.886Z,1011.49
2019-04-16T12:23:01.381Z,1011.52
2019-04-16T12:24:01.902Z,1011.45
2019-04-16T12:25:02.409Z,1011.55
2019-04-16T12:26:02.862Z,1011.48
2019-04-16T12:27:03.313Z,1011.39
2019-04-16T12:28:06.352Z,1011.40
2019-04-16T12:29:11.255Z,1011.38
2019-04-16T12:30:11.688Z,1011.39
2019-04-16T12:31:12.171Z,1011.33
2019-04-16T12:32:12.669Z,1011.42
2019-04-16T12:33:14.178Z,1011.40
2019-04-16T12:34:15.471Z,1011.36
2019-04-16T12:35:15.934Z,1011.37
2019-04-16T12:36:16.468Z,1011.43
2019-04-16T12:37:16.913Z,1011.42
2019-04-16T12:38:24.202Z,1011.47
2019-04-16T12:39:24.720Z,1011.42
2019-04-16T12:41:40.628Z,1011.39
2019-04-16T12:42:42.572Z,1011.42
2019-04-16T12:43:43.051Z,1011.39
2019-04-16T12:44:46.144Z,1011.44
2019-04-16T12:45:46.710Z,1011.31
2019-04-16T12:47:08.297Z,1011.38
2019-04-16T12:48:08.767Z,1011.39
2019-04-16T12:49:10.311Z,1011.38
2019-04-16T12:50:10.745Z,1011.42
2019-04-16T12:51:26.191Z,1011.39
2019-04-16T12:52:26.639Z,1011.43
2019-04-16T12:53:56.250Z,1011.34
2019-04-16T12:54:59.384Z,1011.32
2019-04-16T12:57:16.605Z,1011.28